sensor_id;sensor_type;location;lat;lon;timestamp;P1;durP1;ratioP1;P2;durP2;ratioP2
42282;SDS011;28237;47.954;21.730;2023-09-12T00:00:47;5.78;;;3.58;;
42282;SDS011;28237;47.954;21.730;2023-09-12T00:03:12;7.40;;;3.33;;
42282;SDS011;28237;47.954;21.730;2023-09-12T00:05:37;6.50;;;3.42;;
42282;SDS011;28237;47.954;21.730;2023-09-12T00:08:03;5.50;;;4.10;;
42282;SDS011;28237;47.954;21.730;2023-09-12T00:10:28;3.70;;;3.40;;
42282;SDS011;28237;47.954;21.730;2023-09-12T00:12:54;5.45;;;3.50;;
42282;SDS011;28237;47.954;21.730;2023-09-12T00:15:20;5.10;;;3.72;;
42282;SDS011;28237;47.954;21.730;2023-09-12T00:17:45;5.10;;;3.67;;
42282;SDS011;28237;47.954;21.730;2023-09-12T00:20:10;4.87;;;3.40;;
42282;SDS011;28237;47.954;21.730;2023-09-12T00:22:36;8.57;;;4.47;;
42282;SDS011;28237;47.954;21.730;2023-09-12T00:25:01;5.43;;;4.13;;
42282;SDS011;28237;47.954;21.730;2023-09-12T00:27:27;6.13;;;3.65;;
42282;SDS011;28237;47.954;21.730;2023-09-12T00:29:52;4.67;;;4.17;;
42282;SDS011;28237;47.954;21.730;2023-09-12T00:32:17;4.87;;;3.77;;
42282;SDS011;28237;47.954;21.730;2023-09-12T00:34:42;4.23;;;3.80;;
42282;SDS011;28237;47.954;21.730;2023-09-12T00:37:08;4.13;;;3.73;;
42282;SDS011;28237;47.954;21.730;2023-09-12T00:39:33;4.38;;;3.97;;
42282;SDS011;28237;47.954;21.730;2023-09-12T00:41:58;6.57;;;3.60;;
42282;SDS011;28237;47.954;21.730;2023-09-12T00:44:24;5.53;;;3.67;;
42282;SDS011;28237;47.954;21.730;2023-09-12T00:46:49;5.77;;;3.37;;
42282;SDS011;28237;47.954;21.730;2023-09-12T00:49:15;4.43;;;3.65;;
42282;SDS011;28237;47.954;21.730;2023-09-12T00:51:41;4.10;;;3.47;;
42282;SDS011;28237;47.954;21.730;2023-09-12T00:54:07;6.60;;;4.60;;
42282;SDS011;28237;47.954;21.730;2023-09-12T00:56:32;7.80;;;4.38;;
42282;SDS011;28237;47.954;21.730;2023-09-12T00:58:58;5.90;;;3.50;;
42282;SDS011;28237;47.954;21.730;2023-09-12T01:01:23;6.57;;;3.67;;
42282;SDS011;28237;47.954;21.730;2023-09-12T01:03:48;6.45;;;3.42;;
42282;SDS011;28237;47.954;21.730;2023-09-12T01:06:14;5.38;;;3.97;;
42282;SDS011;28237;47.954;21.730;2023-09-12T01:08:40;6.05;;;4.45;;
42282;SDS011;28237;47.954;21.730;2023-09-12T01:11:05;4.53;;;3.95;;
42282;SDS011;28237;47.954;21.730;2023-09-12T01:13:30;5.20;;;3.63;;
42282;SDS011;28237;47.954;21.730;2023-09-12T01:15:56;3.60;;;3.28;;
42282;SDS011;28237;47.954;21.730;2023-09-12T01:18:21;6.25;;;4.13;;
42282;SDS011;28237;47.954;21.730;2023-09-12T01:20:53;6.03;;;4.50;;
42282;SDS011;28237;47.954;21.730;2023-09-12T01:28:38;5.15;;;4.20;;
42282;SDS011;28237;47.954;21.730;2023-09-12T01:31:07;4.35;;;3.85;;
42282;SDS011;28237;47.954;21.730;2023-09-12T01:33:32;4.03;;;3.72;;
42282;SDS011;28237;47.954;21.730;2023-09-12T01:35:58;5.90;;;3.97;;
42282;SDS011;28237;47.954;21.730;2023-09-12T01:38:23;6.30;;;3.70;;
42282;SDS011;28237;47.954;21.730;2023-09-12T01:40:49;7.13;;;4.28;;
42282;SDS011;28237;47.954;21.730;2023-09-12T01:43:16;4.63;;;4.07;;
42282;SDS011;28237;47.954;21.730;2023-09-12T01:45:42;11.20;;;4.28;;
42282;SDS011;28237;47.954;21.730;2023-09-12T01:48:07;5.45;;;4.40;;
42282;SDS011;28237;47.954;21.730;2023-09-12T01:50:33;5.18;;;3.75;;
42282;SDS011;28237;47.954;21.730;2023-09-12T01:52:59;10.43;;;4.50;;
42282;SDS011;28237;47.954;21.730;2023-09-12T01:55:24;6.35;;;3.97;;
42282;SDS011;28237;47.954;21.730;2023-09-12T01:57:50;5.68;;;3.85;;
42282;SDS011;28237;47.954;21.730;2023-09-12T02:00:17;6.18;;;3.75;;
42282;SDS011;28237;47.954;21.730;2023-09-12T02:02:42;4.45;;;4.03;;
42282;SDS011;28237;47.954;21.730;2023-09-12T02:07:33;7.90;;;4.07;;
42282;SDS011;28237;47.954;21.730;2023-09-12T02:09:59;6.90;;;3.97;;
42282;SDS011;28237;47.954;21.730;2023-09-12T02:12:25;7.80;;;4.05;;
42282;SDS011;28237;47.954;21.730;2023-09-12T02:14:50;6.50;;;3.97;;
42282;SDS011;28237;47.954;21.730;2023-09-12T02:17:16;6.60;;;4.40;;
42282;SDS011;28237;47.954;21.730;2023-09-12T02:19:41;5.30;;;3.73;;
42282;SDS011;28237;47.954;21.730;2023-09-12T02:22:06;6.37;;;4.60;;
42282;SDS011;28237;47.954;21.730;2023-09-12T02:24:34;5.55;;;4.20;;
42282;SDS011;28237;47.954;21.730;2023-09-12T02:26:59;4.38;;;3.65;;
42282;SDS011;28237;47.954;21.730;2023-09-12T02:29:24;4.20;;;3.80;;
42282;SDS011;28237;47.954;21.730;2023-09-12T02:31:50;4.80;;;4.40;;
42282;SDS011;28237;47.954;21.730;2023-09-12T02:34:15;7.67;;;4.23;;
42282;SDS011;28237;47.954;21.730;2023-09-12T02:36:40;7.17;;;5.27;;
42282;SDS011;28237;47.954;21.730;2023-09-12T02:39:05;6.28;;;3.58;;
42282;SDS011;28237;47.954;21.730;2023-09-12T02:41:31;4.53;;;4.07;;
42282;SDS011;28237;47.954;21.730;2023-09-12T02:43:56;5.57;;;3.67;;
42282;SDS011;28237;47.954;21.730;2023-09-12T02:46:21;8.52;;;3.90;;
42282;SDS011;28237;47.954;21.730;2023-09-12T02:48:47;5.22;;;4.00;;
42282;SDS011;28237;47.954;21.730;2023-09-12T02:51:12;8.90;;;3.63;;
42282;SDS011;28237;47.954;21.730;2023-09-12T02:53:37;6.25;;;4.05;;
42282;SDS011;28237;47.954;21.730;2023-09-12T02:56:03;5.90;;;3.80;;
42282;SDS011;28237;47.954;21.730;2023-09-12T02:58:28;5.85;;;3.83;;
42282;SDS011;28237;47.954;21.730;2023-09-12T03:00:53;6.75;;;4.80;;
42282;SDS011;28237;47.954;21.730;2023-09-12T03:03:19;4.55;;;4.07;;
42282;SDS011;28237;47.954;21.730;2023-09-12T03:05:45;4.85;;;3.30;;
42282;SDS011;28237;47.954;21.730;2023-09-12T03:08:10;5.47;;;3.87;;
42282;SDS011;28237;47.954;21.730;2023-09-12T03:10:35;7.28;;;4.25;;
42282;SDS011;28237;47.954;21.730;2023-09-12T03:13:00;7.37;;;4.57;;
42282;SDS011;28237;47.954;21.730;2023-09-12T03:15:26;4.67;;;3.87;;
42282;SDS011;28237;47.954;21.730;2023-09-12T03:17:51;4.35;;;3.75;;
42282;SDS011;28237;47.954;21.730;2023-09-12T03:20:16;6.83;;;4.10;;
42282;SDS011;28237;47.954;21.730;2023-09-12T03:22:42;6.80;;;4.50;;
42282;SDS011;28237;47.954;21.730;2023-09-12T03:25:07;6.13;;;3.80;;
42282;SDS011;28237;47.954;21.730;2023-09-12T03:27:32;5.80;;;3.92;;
42282;SDS011;28237;47.954;21.730;2023-09-12T03:29:58;7.90;;;4.32;;
42282;SDS011;28237;47.954;21.730;2023-09-12T03:32:23;8.20;;;3.78;;
42282;SDS011;28237;47.954;21.730;2023-09-12T03:34:48;5.80;;;3.90;;
42282;SDS011;28237;47.954;21.730;2023-09-12T03:37:13;6.27;;;4.93;;
42282;SDS011;28237;47.954;21.730;2023-09-12T03:39:39;5.63;;;3.93;;
42282;SDS011;28237;47.954;21.730;2023-09-12T03:42:04;5.17;;;4.20;;
42282;SDS011;28237;47.954;21.730;2023-09-12T03:44:29;6.63;;;4.18;;
42282;SDS011;28237;47.954;21.730;2023-09-12T03:46:55;5.27;;;3.97;;
42282;SDS011;28237;47.954;21.730;2023-09-12T03:49:20;7.30;;;3.85;;
42282;SDS011;28237;47.954;21.730;2023-09-12T03:51:45;4.97;;;4.27;;
42282;SDS011;28237;47.954;21.730;2023-09-12T03:54:10;5.97;;;4.63;;
42282;SDS011;28237;47.954;21.730;2023-09-12T03:56:36;5.53;;;4.03;;
42282;SDS011;28237;47.954;21.730;2023-09-12T03:59:01;6.50;;;4.83;;
42282;SDS011;28237;47.954;21.730;2023-09-12T04:01:27;6.85;;;3.85;;
42282;SDS011;28237;47.954;21.730;2023-09-12T04:03:53;6.05;;;4.32;;
42282;SDS011;28237;47.954;21.730;2023-09-12T04:06:18;12.70;;;4.50;;
42282;SDS011;28237;47.954;21.730;2023-09-12T04:08:44;7.43;;;4.40;;
42282;SDS011;28237;47.954;21.730;2023-09-12T04:11:09;5.73;;;4.23;;
42282;SDS011;28237;47.954;21.730;2023-09-12T04:13:36;6.10;;;4.07;;
42282;SDS011;28237;47.954;21.730;2023-09-12T04:16:01;6.28;;;4.40;;
42282;SDS011;28237;47.954;21.730;2023-09-12T04:18:26;5.37;;;3.73;;
42282;SDS011;28237;47.954;21.730;2023-09-12T04:20:52;7.72;;;5.32;;
42282;SDS011;28237;47.954;21.730;2023-09-12T04:23:17;5.93;;;4.40;;
42282;SDS011;28237;47.954;21.730;2023-09-12T04:25:42;7.07;;;4.53;;
42282;SDS011;28237;47.954;21.730;2023-09-12T04:28:08;7.40;;;4.75;;
42282;SDS011;28237;47.954;21.730;2023-09-12T04:30:34;5.07;;;4.47;;
42282;SDS011;28237;47.954;21.730;2023-09-12T04:33:00;5.57;;;4.60;;
42282;SDS011;28237;47.954;21.730;2023-09-12T04:35:25;4.15;;;3.72;;
42282;SDS011;28237;47.954;21.730;2023-09-12T04:37:51;5.43;;;4.05;;
42282;SDS011;28237;47.954;21.730;2023-09-12T04:40:16;8.27;;;4.07;;
42282;SDS011;28237;47.954;21.730;2023-09-12T04:42:41;4.45;;;4.05;;
42282;SDS011;28237;47.954;21.730;2023-09-12T04:45:07;9.43;;;4.10;;
42282;SDS011;28237;47.954;21.730;2023-09-12T04:47:32;4.28;;;3.80;;
42282;SDS011;28237;47.954;21.730;2023-09-12T04:49:57;6.50;;;4.37;;
42282;SDS011;28237;47.954;21.730;2023-09-12T04:52:23;6.43;;;3.97;;
42282;SDS011;28237;47.954;21.730;2023-09-12T04:54:48;5.63;;;3.88;;
42282;SDS011;28237;47.954;21.730;2023-09-12T04:57:13;7.00;;;4.30;;
42282;SDS011;28237;47.954;21.730;2023-09-12T04:59:39;7.43;;;4.38;;
42282;SDS011;28237;47.954;21.730;2023-09-12T05:02:04;9.30;;;4.50;;
42282;SDS011;28237;47.954;21.730;2023-09-12T05:04:29;6.68;;;4.25;;
42282;SDS011;28237;47.954;21.730;2023-09-12T05:06:55;8.95;;;5.20;;
42282;SDS011;28237;47.954;21.730;2023-09-12T05:09:20;9.85;;;5.30;;
42282;SDS011;28237;47.954;21.730;2023-09-12T05:11:45;8.47;;;5.17;;
42282;SDS011;28237;47.954;21.730;2023-09-12T05:14:10;6.53;;;4.97;;
42282;SDS011;28237;47.954;21.730;2023-09-12T05:16:36;6.30;;;4.63;;
42282;SDS011;28237;47.954;21.730;2023-09-12T05:19:02;5.10;;;4.60;;
42282;SDS011;28237;47.954;21.730;2023-09-12T05:21:27;8.13;;;4.82;;
42282;SDS011;28237;47.954;21.730;2023-09-12T05:23:52;11.93;;;7.10;;
42282;SDS011;28237;47.954;21.730;2023-09-12T05:26:18;10.75;;;6.20;;
42282;SDS011;28237;47.954;21.730;2023-09-12T05:28:43;7.20;;;5.40;;
42282;SDS011;28237;47.954;21.730;2023-09-12T05:31:09;12.05;;;5.18;;
42282;SDS011;28237;47.954;21.730;2023-09-12T05:33:34;8.95;;;4.85;;
42282;SDS011;28237;47.954;21.730;2023-09-12T05:36:00;5.68;;;4.57;;
42282;SDS011;28237;47.954;21.730;2023-09-12T05:38:25;5.05;;;4.38;;
42282;SDS011;28237;47.954;21.730;2023-09-12T05:40:50;8.52;;;4.57;;
42282;SDS011;28237;47.954;21.730;2023-09-12T05:43:16;11.07;;;5.53;;
42282;SDS011;28237;47.954;21.730;2023-09-12T05:45:42;7.68;;;5.03;;
42282;SDS011;28237;47.954;21.730;2023-09-12T05:48:07;8.18;;;5.40;;
42282;SDS011;28237;47.954;21.730;2023-09-12T05:50:32;9.38;;;4.32;;
42282;SDS011;28237;47.954;21.730;2023-09-12T05:52:57;8.37;;;5.30;;
42282;SDS011;28237;47.954;21.730;2023-09-12T05:55:23;8.33;;;5.50;;
42282;SDS011;28237;47.954;21.730;2023-09-12T05:57:50;7.18;;;4.90;;
42282;SDS011;28237;47.954;21.730;2023-09-12T06:00:18;6.68;;;4.63;;
42282;SDS011;28237;47.954;21.730;2023-09-12T06:02:44;7.10;;;4.47;;
42282;SDS011;28237;47.954;21.730;2023-09-12T06:05:10;6.70;;;4.50;;
42282;SDS011;28237;47.954;21.730;2023-09-12T06:07:35;6.97;;;5.10;;
42282;SDS011;28237;47.954;21.730;2023-09-12T06:10:01;5.45;;;4.22;;
42282;SDS011;28237;47.954;21.730;2023-09-12T06:12:26;5.40;;;4.10;;
42282;SDS011;28237;47.954;21.730;2023-09-12T06:14:52;4.80;;;4.30;;
42282;SDS011;28237;47.954;21.730;2023-09-12T06:17:19;5.90;;;4.18;;
42282;SDS011;28237;47.954;21.730;2023-09-12T06:19:44;6.13;;;4.57;;
42282;SDS011;28237;47.954;21.730;2023-09-12T06:22:09;8.37;;;3.90;;
42282;SDS011;28237;47.954;21.730;2023-09-12T06:24:35;4.50;;;3.90;;
42282;SDS011;28237;47.954;21.730;2023-09-12T06:27:00;6.07;;;4.43;;
42282;SDS011;28237;47.954;21.730;2023-09-12T06:29:25;6.03;;;4.13;;
42282;SDS011;28237;47.954;21.730;2023-09-12T06:31:50;7.18;;;3.97;;
42282;SDS011;28237;47.954;21.730;2023-09-12T06:34:16;5.50;;;4.13;;
42282;SDS011;28237;47.954;21.730;2023-09-12T06:36:41;4.27;;;3.20;;
42282;SDS011;28237;47.954;21.730;2023-09-12T06:39:09;9.88;;;5.13;;
42282;SDS011;28237;47.954;21.730;2023-09-12T06:41:35;5.70;;;3.47;;
42282;SDS011;28237;47.954;21.730;2023-09-12T06:44:00;6.28;;;4.28;;
42282;SDS011;28237;47.954;21.730;2023-09-12T06:46:27;5.03;;;3.95;;
42282;SDS011;28237;47.954;21.730;2023-09-12T06:48:53;5.40;;;3.17;;
42282;SDS011;28237;47.954;21.730;2023-09-12T06:51:18;3.93;;;3.40;;
42282;SDS011;28237;47.954;21.730;2023-09-12T06:53:48;6.75;;;4.25;;
42282;SDS011;28237;47.954;21.730;2023-09-12T06:56:13;7.43;;;4.18;;
42282;SDS011;28237;47.954;21.730;2023-09-12T06:58:39;5.82;;;2.95;;
42282;SDS011;28237;47.954;21.730;2023-09-12T07:01:05;4.93;;;3.83;;
42282;SDS011;28237;47.954;21.730;2023-09-12T07:03:31;6.00;;;3.95;;
42282;SDS011;28237;47.954;21.730;2023-09-12T07:05:56;5.05;;;4.05;;
42282;SDS011;28237;47.954;21.730;2023-09-12T07:08:22;6.03;;;4.75;;
42282;SDS011;28237;47.954;21.730;2023-09-12T07:10:47;7.40;;;4.80;;
42282;SDS011;28237;47.954;21.730;2023-09-12T07:13:13;4.83;;;4.30;;
42282;SDS011;28237;47.954;21.730;2023-09-12T07:15:38;4.07;;;3.43;;
42282;SDS011;28237;47.954;21.730;2023-09-12T07:18:04;5.03;;;4.07;;
42282;SDS011;28237;47.954;21.730;2023-09-12T07:20:30;5.75;;;3.85;;
42282;SDS011;28237;47.954;21.730;2023-09-12T07:22:55;8.30;;;4.20;;
42282;SDS011;28237;47.954;21.730;2023-09-12T07:25:21;17.57;;;5.13;;
42282;SDS011;28237;47.954;21.730;2023-09-12T07:27:48;6.50;;;3.70;;
42282;SDS011;28237;47.954;21.730;2023-09-12T07:30:14;5.13;;;4.23;;
42282;SDS011;28237;47.954;21.730;2023-09-12T07:32:39;5.93;;;4.03;;
42282;SDS011;28237;47.954;21.730;2023-09-12T07:35:04;5.95;;;3.05;;
42282;SDS011;28237;47.954;21.730;2023-09-12T07:37:30;10.20;;;4.78;;
42282;SDS011;28237;47.954;21.730;2023-09-12T07:39:55;8.73;;;4.07;;
42282;SDS011;28237;47.954;21.730;2023-09-12T07:42:23;3.65;;;3.17;;
42282;SDS011;28237;47.954;21.730;2023-09-12T07:44:49;4.95;;;3.80;;
42282;SDS011;28237;47.954;21.730;2023-09-12T07:47:14;8.77;;;3.80;;
42282;SDS011;28237;47.954;21.730;2023-09-12T07:49:55;8.70;;;3.28;;
42282;SDS011;28237;47.954;21.730;2023-09-12T07:52:20;5.32;;;3.08;;
42282;SDS011;28237;47.954;21.730;2023-09-12T07:54:46;7.63;;;3.53;;
42282;SDS011;28237;47.954;21.730;2023-09-12T07:57:11;4.93;;;4.03;;
42282;SDS011;28237;47.954;21.730;2023-09-12T07:59:38;4.80;;;3.50;;
42282;SDS011;28237;47.954;21.730;2023-09-12T08:02:03;6.95;;;3.53;;
42282;SDS011;28237;47.954;21.730;2023-09-12T08:04:29;4.60;;;3.42;;
42282;SDS011;28237;47.954;21.730;2023-09-12T08:06:54;10.25;;;3.78;;
42282;SDS011;28237;47.954;21.730;2023-09-12T08:09:20;7.45;;;3.83;;
42282;SDS011;28237;47.954;21.730;2023-09-12T08:11:45;10.77;;;3.50;;
42282;SDS011;28237;47.954;21.730;2023-09-12T08:14:10;4.03;;;3.55;;
42282;SDS011;28237;47.954;21.730;2023-09-12T08:16:36;5.72;;;2.88;;
42282;SDS011;28237;47.954;21.730;2023-09-12T08:19:01;6.40;;;2.67;;
42282;SDS011;28237;47.954;21.730;2023-09-12T08:21:26;5.10;;;3.00;;
42282;SDS011;28237;47.954;21.730;2023-09-12T08:23:52;5.13;;;2.88;;
42282;SDS011;28237;47.954;21.730;2023-09-12T08:26:17;5.17;;;3.30;;
42282;SDS011;28237;47.954;21.730;2023-09-12T08:28:42;6.38;;;2.67;;
42282;SDS011;28237;47.954;21.730;2023-09-12T08:31:08;3.90;;;3.23;;
42282;SDS011;28237;47.954;21.730;2023-09-12T08:33:33;4.10;;;2.90;;
42282;SDS011;28237;47.954;21.730;2023-09-12T08:35:58;4.03;;;2.13;;
42282;SDS011;28237;47.954;21.730;2023-09-12T08:38:24;4.90;;;3.35;;
42282;SDS011;28237;47.954;21.730;2023-09-12T08:40:49;6.35;;;3.67;;
42282;SDS011;28237;47.954;21.730;2023-09-12T08:43:15;4.15;;;2.60;;
42282;SDS011;28237;47.954;21.730;2023-09-12T08:45:40;4.20;;;2.60;;
42282;SDS011;28237;47.954;21.730;2023-09-12T08:48:08;4.25;;;2.55;;
42282;SDS011;28237;47.954;21.730;2023-09-12T08:50:34;4.32;;;3.08;;
42282;SDS011;28237;47.954;21.730;2023-09-12T08:53:00;5.10;;;2.37;;
42282;SDS011;28237;47.954;21.730;2023-09-12T08:55:25;3.10;;;2.20;;
42282;SDS011;28237;47.954;21.730;2023-09-12T08:57:51;3.60;;;2.08;;
42282;SDS011;28237;47.954;21.730;2023-09-12T09:00:17;8.07;;;2.25;;
42282;SDS011;28237;47.954;21.730;2023-09-12T09:02:43;3.35;;;2.45;;
42282;SDS011;28237;47.954;21.730;2023-09-12T09:05:09;3.08;;;2.78;;
42282;SDS011;28237;47.954;21.730;2023-09-12T09:07:39;2.53;;;1.88;;
42282;SDS011;28237;47.954;21.730;2023-09-12T09:10:05;3.85;;;1.85;;
42282;SDS011;28237;47.954;21.730;2023-09-12T09:12:31;5.05;;;2.17;;
42282;SDS011;28237;47.954;21.730;2023-09-12T09:14:57;5.75;;;2.42;;
42282;SDS011;28237;47.954;21.730;2023-09-12T09:17:22;3.90;;;2.00;;
42282;SDS011;28237;47.954;21.730;2023-09-12T09:19:48;5.70;;;2.42;;
42282;SDS011;28237;47.954;21.730;2023-09-12T09:22:13;2.92;;;2.13;;
42282;SDS011;28237;47.954;21.730;2023-09-12T09:24:39;3.83;;;2.00;;
42282;SDS011;28237;47.954;21.730;2023-09-12T09:27:04;3.43;;;2.33;;
42282;SDS011;28237;47.954;21.730;2023-09-12T09:29:29;4.87;;;2.13;;
42282;SDS011;28237;47.954;21.730;2023-09-12T09:31:57;4.18;;;2.17;;
42282;SDS011;28237;47.954;21.730;2023-09-12T09:34:23;2.65;;;2.22;;
42282;SDS011;28237;47.954;21.730;2023-09-12T09:36:52;3.50;;;2.10;;
42282;SDS011;28237;47.954;21.730;2023-09-12T09:39:18;3.90;;;2.17;;
42282;SDS011;28237;47.954;21.730;2023-09-12T09:41:50;3.70;;;2.40;;
42282;SDS011;28237;47.954;21.730;2023-09-12T09:44:16;3.30;;;2.33;;
42282;SDS011;28237;47.954;21.730;2023-09-12T09:46:45;5.75;;;2.47;;
42282;SDS011;28237;47.954;21.730;2023-09-12T09:49:10;3.00;;;1.92;;
42282;SDS011;28237;47.954;21.730;2023-09-12T09:51:42;5.78;;;2.33;;
42282;SDS011;28237;47.954;21.730;2023-09-12T09:54:08;2.97;;;1.90;;
42282;SDS011;28237;47.954;21.730;2023-09-12T09:56:33;5.43;;;2.25;;
42282;SDS011;28237;47.954;21.730;2023-09-12T09:59:09;7.32;;;4.75;;
42282;SDS011;28237;47.954;21.730;2023-09-12T10:01:38;6.07;;;2.97;;
42282;SDS011;28237;47.954;21.730;2023-09-12T10:04:03;4.47;;;1.80;;
42282;SDS011;28237;47.954;21.730;2023-09-12T10:06:29;5.18;;;1.77;;
42282;SDS011;28237;47.954;21.730;2023-09-12T10:08:55;3.10;;;1.67;;
42282;SDS011;28237;47.954;21.730;2023-09-12T10:11:22;2.33;;;2.05;;
42282;SDS011;28237;47.954;21.730;2023-09-12T10:13:54;1.95;;;1.30;;
42282;SDS011;28237;47.954;21.730;2023-09-12T10:16:20;2.80;;;1.73;;
42282;SDS011;28237;47.954;21.730;2023-09-12T10:18:59;3.38;;;1.65;;
42282;SDS011;28237;47.954;21.730;2023-09-12T10:21:28;2.53;;;1.33;;
42282;SDS011;28237;47.954;21.730;2023-09-12T10:23:54;2.05;;;1.63;;
42282;SDS011;28237;47.954;21.730;2023-09-12T10:26:20;2.72;;;1.80;;
42282;SDS011;28237;47.954;21.730;2023-09-12T10:28:45;2.80;;;1.80;;
42282;SDS011;28237;47.954;21.730;2023-09-12T10:31:12;2.60;;;1.70;;
42282;SDS011;28237;47.954;21.730;2023-09-12T10:33:38;3.90;;;2.47;;
42282;SDS011;28237;47.954;21.730;2023-09-12T10:36:03;2.97;;;1.55;;
42282;SDS011;28237;47.954;21.730;2023-09-12T10:38:30;4.10;;;2.22;;
42282;SDS011;28237;47.954;21.730;2023-09-12T10:40:57;3.53;;;1.48;;
42282;SDS011;28237;47.954;21.730;2023-09-12T10:43:24;2.83;;;1.50;;
42282;SDS011;28237;47.954;21.730;2023-09-12T10:45:50;2.42;;;1.50;;
42282;SDS011;28237;47.954;21.730;2023-09-12T10:48:16;1.90;;;1.35;;
42282;SDS011;28237;47.954;21.730;2023-09-12T10:50:42;2.67;;;1.77;;
42282;SDS011;28237;47.954;21.730;2023-09-12T10:53:12;7.05;;;1.75;;
42282;SDS011;28237;47.954;21.730;2023-09-12T10:55:38;1.80;;;1.10;;
42282;SDS011;28237;47.954;21.730;2023-09-12T10:58:04;2.40;;;1.90;;
42282;SDS011;28237;47.954;21.730;2023-09-12T11:00:29;3.45;;;1.73;;
42282;SDS011;28237;47.954;21.730;2023-09-12T11:02:57;5.38;;;1.70;;
42282;SDS011;28237;47.954;21.730;2023-09-12T11:07:58;6.97;;;1.67;;
42282;SDS011;28237;47.954;21.730;2023-09-12T11:10:24;4.40;;;1.52;;
42282;SDS011;28237;47.954;21.730;2023-09-12T11:12:50;4.60;;;1.65;;
42282;SDS011;28237;47.954;21.730;2023-09-12T11:15:16;6.32;;;1.25;;
42282;SDS011;28237;47.954;21.730;2023-09-12T11:17:49;2.63;;;1.33;;
42282;SDS011;28237;47.954;21.730;2023-09-12T11:20:15;4.78;;;1.60;;
42282;SDS011;28237;47.954;21.730;2023-09-12T11:22:42;4.20;;;1.75;;
42282;SDS011;28237;47.954;21.730;2023-09-12T11:28:02;4.50;;;1.10;;
42282;SDS011;28237;47.954;21.730;2023-09-12T11:30:31;1.92;;;1.17;;
42282;SDS011;28237;47.954;21.730;2023-09-12T11:32:56;2.67;;;1.92;;
42282;SDS011;28237;47.954;21.730;2023-09-12T11:35:23;6.28;;;1.55;;
42282;SDS011;28237;47.954;21.730;2023-09-12T11:37:49;4.70;;;1.40;;
42282;SDS011;28237;47.954;21.730;2023-09-12T11:42:40;2.05;;;1.00;;
42282;SDS011;28237;47.954;21.730;2023-09-12T11:45:11;1.95;;;1.23;;
42282;SDS011;28237;47.954;21.730;2023-09-12T11:47:40;2.65;;;1.55;;
42282;SDS011;28237;47.954;21.730;2023-09-12T11:50:05;1.63;;;0.93;;
42282;SDS011;28237;47.954;21.730;2023-09-12T11:52:31;7.35;;;4.90;;
42282;SDS011;28237;47.954;21.730;2023-09-12T11:54:56;5.00;;;2.53;;
42282;SDS011;28237;47.954;21.730;2023-09-12T11:57:21;2.10;;;1.13;;
42282;SDS011;28237;47.954;21.730;2023-09-12T11:59:47;3.17;;;1.58;;
42282;SDS011;28237;47.954;21.730;2023-09-12T12:02:16;2.67;;;1.23;;
42282;SDS011;28237;47.954;21.730;2023-09-12T12:04:44;3.75;;;1.00;;
42282;SDS011;28237;47.954;21.730;2023-09-12T12:07:10;4.32;;;1.45;;
42282;SDS011;28237;47.954;21.730;2023-09-12T12:09:36;4.57;;;1.88;;
42282;SDS011;28237;47.954;21.730;2023-09-12T12:12:11;2.78;;;1.20;;
42282;SDS011;28237;47.954;21.730;2023-09-12T12:14:36;3.38;;;1.23;;
42282;SDS011;28237;47.954;21.730;2023-09-12T12:17:09;3.40;;;1.27;;
42282;SDS011;28237;47.954;21.730;2023-09-12T12:19:35;3.47;;;1.33;;
42282;SDS011;28237;47.954;21.730;2023-09-12T12:22:06;2.22;;;1.27;;
42282;SDS011;28237;47.954;21.730;2023-09-12T12:24:39;2.50;;;0.90;;
42282;SDS011;28237;47.954;21.730;2023-09-12T12:27:05;2.08;;;1.40;;
42282;SDS011;28237;47.954;21.730;2023-09-12T12:29:30;3.47;;;1.35;;
42282;SDS011;28237;47.954;21.730;2023-09-12T12:32:01;5.53;;;1.33;;
42282;SDS011;28237;47.954;21.730;2023-09-12T12:34:26;2.25;;;1.00;;
42282;SDS011;28237;47.954;21.730;2023-09-12T12:36:53;3.43;;;1.37;;
42282;SDS011;28237;47.954;21.730;2023-09-12T12:39:18;3.58;;;1.40;;
42282;SDS011;28237;47.954;21.730;2023-09-12T12:41:43;3.17;;;1.30;;
42282;SDS011;28237;47.954;21.730;2023-09-12T12:44:09;4.70;;;1.60;;
42282;SDS011;28237;47.954;21.730;2023-09-12T12:46:47;2.67;;;0.75;;
42282;SDS011;28237;47.954;21.730;2023-09-12T12:49:14;1.85;;;1.17;;
42282;SDS011;28237;47.954;21.730;2023-09-12T12:51:39;2.35;;;1.25;;
42282;SDS011;28237;47.954;21.730;2023-09-12T12:54:07;4.80;;;1.50;;
42282;SDS011;28237;47.954;21.730;2023-09-12T12:56:32;2.58;;;1.02;;
42282;SDS011;28237;47.954;21.730;2023-09-12T12:58:58;5.47;;;1.33;;
42282;SDS011;28237;47.954;21.730;2023-09-12T13:01:25;1.85;;;0.90;;
42282;SDS011;28237;47.954;21.730;2023-09-12T13:03:50;2.20;;;1.50;;
42282;SDS011;28237;47.954;21.730;2023-09-12T13:06:16;6.10;;;1.20;;
42282;SDS011;28237;47.954;21.730;2023-09-12T13:08:46;11.57;;;1.30;;
42282;SDS011;28237;47.954;21.730;2023-09-12T13:11:13;3.72;;;1.48;;
42282;SDS011;28237;47.954;21.730;2023-09-12T13:13:39;1.85;;;1.02;;
42282;SDS011;28237;47.954;21.730;2023-09-12T13:16:05;3.00;;;1.35;;
42282;SDS011;28237;47.954;21.730;2023-09-12T13:18:34;1.10;;;0.80;;
42282;SDS011;28237;47.954;21.730;2023-09-12T13:20:59;5.13;;;2.42;;
42282;SDS011;28237;47.954;21.730;2023-09-12T13:23:25;1.75;;;1.30;;
42282;SDS011;28237;47.954;21.730;2023-09-12T13:25:50;5.63;;;1.80;;
42282;SDS011;28237;47.954;21.730;2023-09-12T13:28:16;3.67;;;1.20;;
42282;SDS011;28237;47.954;21.730;2023-09-12T13:30:41;1.65;;;0.95;;
42282;SDS011;28237;47.954;21.730;2023-09-12T13:33:07;3.97;;;1.33;;
42282;SDS011;28237;47.954;21.730;2023-09-12T13:35:32;4.50;;;1.40;;
42282;SDS011;28237;47.954;21.730;2023-09-12T13:37:57;3.00;;;1.52;;
42282;SDS011;28237;47.954;21.730;2023-09-12T13:40:23;1.50;;;1.03;;
42282;SDS011;28237;47.954;21.730;2023-09-12T13:42:48;6.13;;;1.30;;
42282;SDS011;28237;47.954;21.730;2023-09-12T13:45:13;3.07;;;1.80;;
42282;SDS011;28237;47.954;21.730;2023-09-12T13:47:38;3.90;;;1.40;;
42282;SDS011;28237;47.954;21.730;2023-09-12T13:50:04;2.90;;;1.20;;
42282;SDS011;28237;47.954;21.730;2023-09-12T13:52:29;3.88;;;1.65;;
42282;SDS011;28237;47.954;21.730;2023-09-12T13:54:55;4.72;;;1.45;;
42282;SDS011;28237;47.954;21.730;2023-09-12T13:57:21;3.10;;;1.55;;
42282;SDS011;28237;47.954;21.730;2023-09-12T13:59:46;2.97;;;1.17;;
42282;SDS011;28237;47.954;21.730;2023-09-12T14:02:11;2.13;;;1.10;;
42282;SDS011;28237;47.954;21.730;2023-09-12T14:04:37;3.08;;;1.70;;
42282;SDS011;28237;47.954;21.730;2023-09-12T14:07:02;1.77;;;1.33;;
42282;SDS011;28237;47.954;21.730;2023-09-12T14:09:28;2.38;;;1.45;;
42282;SDS011;28237;47.954;21.730;2023-09-12T14:11:53;3.35;;;1.77;;
42282;SDS011;28237;47.954;21.730;2023-09-12T14:14:18;4.03;;;1.73;;
42282;SDS011;28237;47.954;21.730;2023-09-12T14:16:44;2.20;;;1.63;;
42282;SDS011;28237;47.954;21.730;2023-09-12T14:19:10;3.10;;;1.75;;
42282;SDS011;28237;47.954;21.730;2023-09-12T14:21:35;3.40;;;1.27;;
42282;SDS011;28237;47.954;21.730;2023-09-12T14:24:01;1.77;;;1.17;;
42282;SDS011;28237;47.954;21.730;2023-09-12T14:26:26;2.23;;;1.20;;
42282;SDS011;28237;47.954;21.730;2023-09-12T14:28:51;2.70;;;1.30;;
42282;SDS011;28237;47.954;21.730;2023-09-12T14:31:17;6.40;;;2.00;;
42282;SDS011;28237;47.954;21.730;2023-09-12T14:33:42;3.67;;;1.50;;
42282;SDS011;28237;47.954;21.730;2023-09-12T14:36:08;2.23;;;1.50;;
42282;SDS011;28237;47.954;21.730;2023-09-12T14:38:33;3.20;;;1.75;;
42282;SDS011;28237;47.954;21.730;2023-09-12T14:40:58;4.43;;;1.13;;